Time;durP1;ratioP1;P1;durP2;ratioP2;P2;SDS_P1;SDS_P2;PMS_P1;PMS_P2;Temp;Humidity;BMP_temperature;BMP_pressure;BME280_temperature;BME280_humidity;BME280_pressure;Samples;Min_cycle;Max_cycle;Signal;HPM_P1;HPM_P2
2023/10/09 00:03:07;;;;;;;63.70;35.33;;;;;;;;;;5033645;28;20099;-82
2023/10/09 00:08:08;;;;;;;60.15;33.92;;;;;;;;;;5036475;28;20191;-81
2023/10/09 00:10:49;;;;;;;56.55;34.53;;;;;;;;;;5040991;28;21306;-82
2023/10/09 00:13:15;;;;;;;63.78;35.35;;;;;;;;;;5042456;28;20040;-81
2023/10/09 00:15:42;;;;;;;55.72;35.50;;;;;;;;;;5041018;28;20049;-82
2023/10/09 00:18:12;;;;;;;62.25;36.42;;;;;;;;;;5045441;28;20052;-81
2023/10/09 00:20:42;;;;;;;61.30;37.58;;;;;;;;;;5048326;28;20187;-82
2023/10/09 00:23:14;;;;;;;66.55;37.55;;;;;;;;;;5040576;28;20052;-82
2023/10/09 00:25:47;;;;;;;70.13;38.40;;;;;;;;;;5050208;28;20084;-82
2023/10/09 00:28:14;;;;;;;;;;;;;;;;;;5050541;28;20153;-82
2023/10/09 00:30:43;;;;;;;67.05;36.85;;;;;;;;;;5046038;28;19940;-82
2023/10/09 00:33:11;;;;;;;59.92;36.53;;;;;;;;;;5046628;28;20036;-81
2023/10/09 00:41:03;;;;;;;59.97;34.88;;;;;;;;;;5050477;28;20308;-82
2023/10/09 00:43:30;;;;;;;62.58;35.72;;;;;;;;;;5047364;28;20471;-81
2023/10/09 00:46:09;;;;;;;61.22;33.80;;;;;;;;;;5047081;28;20385;-82
2023/10/09 00:48:40;;;;;;;59.67;33.47;;;;;;;;;;5043736;28;20467;-83
2023/10/09 00:51:17;;;;;;;58.88;33.47;;;;;;;;;;5079412;28;20475;-82
2023/10/09 00:53:51;;;;;;;53.00;33.00;;;;;;;;;;5048947;28;20049;-81
2023/10/09 00:56:28;;;;;;;60.00;31.85;;;;;;;;;;5046601;28;20419;-82
2023/10/09 00:59:06;;;;;;;53.92;31.52;;;;;;;;;;5043219;28;20053;-82
2023/10/09 01:01:36;;;;;;;56.10;33.05;;;;;;;;;;5050225;28;20056;-82
2023/10/09 01:04:17;;;;;;;65.97;33.67;;;;;;;;;;5048488;28;20489;-81
2023/10/09 01:06:44;;;;;;;53.55;32.28;;;;;;;;;;5046520;28;20583;-81
2023/10/09 01:09:12;;;;;;;52.83;31.23;;;;;;;;;;5046879;28;20049;-82
2023/10/09 01:11:48;;;;;;;60.40;33.40;;;;;;;;;;5046423;28;20124;-82
2023/10/09 01:14:15;;;;;;;53.92;31.23;;;;;;;;;;5042736;28;20055;-82
2023/10/09 01:16:42;;;;;;;59.08;33.05;;;;;;;;;;5044248;28;20059;-81
2023/10/09 01:19:23;;;;;;;56.45;32.35;;;;;;;;;;5039464;28;20052;-82
2023/10/09 01:21:53;;;;;;;56.28;31.10;;;;;;;;;;5044429;28;20194;-82
2023/10/09 01:24:19;;;;;;;53.35;31.27;;;;;;;;;;5046533;28;20048;-81
2023/10/09 01:26:46;;;;;;;56.00;33.03;;;;;;;;;;5048062;28;20056;-82
2023/10/09 01:29:19;;;;;;;49.05;31.50;;;;;;;;;;5044508;28;20047;-82
2023/10/09 01:31:52;;;;;;;53.42;30.65;;;;;;;;;;5045363;28;20044;-82
2023/10/09 01:34:19;;;;;;;51.05;30.70;;;;;;;;;;5050920;28;20582;-81
2023/10/09 01:36:48;;;;;;;55.70;30.15;;;;;;;;;;5047493;28;20075;-83
2023/10/09 01:39:23;;;;;;;54.10;31.95;;;;;;;;;;5074059;28;20455;-82
2023/10/09 01:42:05;;;;;;;49.20;30.52;;;;;;;;;;5043189;28;20476;-82
2023/10/09 01:44:34;;;;;;;53.97;29.05;;;;;;;;;;5051528;28;21233;-81
2023/10/09 01:47:14;;;;;;;47.00;25.67;;;;;;;;;;5042583;28;20493;-82
2023/10/09 01:49:43;;;;;;;41.78;25.25;;;;;;;;;;5069512;28;20481;-82
2023/10/09 01:52:12;;;;;;;44.88;24.60;;;;;;;;;;5050106;28;20365;-82
2023/10/09 01:54:39;;;;;;;41.47;23.17;;;;;;;;;;5048484;28;20050;-82
2023/10/09 01:57:09;;;;;;;37.25;22.20;;;;;;;;;;5041032;28;20102;-82
2023/10/09 01:59:43;;;;;;;35.25;21.25;;;;;;;;;;5043293;28;20041;-82
2023/10/09 02:04:41;;;;;;;28.35;17.15;;;;;;;;;;5049925;28;20403;-81
2023/10/09 02:07:10;;;;;;;23.52;14.60;;;;;;;;;;5041861;28;20476;-81
2023/10/09 02:09:44;;;;;;;33.13;13.70;;;;;;;;;;5040005;28;20408;-81
2023/10/09 02:12:10;;;;;;;28.05;14.43;;;;;;;;;;5038840;28;20055;-82
2023/10/09 02:14:41;;;;;;;25.58;13.55;;;;;;;;;;5040791;28;20408;-82
2023/10/09 02:17:17;;;;;;;27.85;14.48;;;;;;;;;;5044141;28;20053;-81
2023/10/09 02:19:48;;;;;;;21.25;12.32;;;;;;;;;;5040341;28;20048;-82
2023/10/09 02:22:14;;;;;;;28.13;13.05;;;;;;;;;;5045225;28;20045;-81
2023/10/09 02:25:07;;;;;;;24.83;12.45;;;;;;;;;;5047461;28;20131;-81
2023/10/09 02:27:53;;;;;;;21.45;11.05;;;;;;;;;;5044795;28;20040;-82
2023/10/09 02:30:26;;;;;;;21.23;11.50;;;;;;;;;;5047304;28;20080;-82
2023/10/09 02:32:54;;;;;;;20.77;10.98;;;;;;;;;;5047051;28;20112;-82
2023/10/09 02:35:28;;;;;;;17.23;10.40;;;;;;;;;;5038949;28;20061;-82
2023/10/09 02:37:54;;;;;;;24.92;10.98;;;;;;;;;;5073507;28;20041;-82
2023/10/09 02:40:25;;;;;;;20.42;11.27;;;;;;;;;;5051131;28;20064;-82
2023/10/09 02:42:52;;;;;;;18.27;9.82;;;;;;;;;;5049178;28;20049;-82
2023/10/09 02:45:18;;;;;;;21.55;11.55;;;;;;;;;;5073278;28;20389;-82
2023/10/09 02:47:48;;;;;;;16.58;10.50;;;;;;;;;;5072311;28;20056;-82
2023/10/09 02:50:20;;;;;;;24.15;10.95;;;;;;;;;;5047373;28;20431;-82
2023/10/09 02:52:47;;;;;;;20.30;10.75;;;;;;;;;;5044161;28;20037;-81
2023/10/09 02:55:26;;;;;;;26.08;10.27;;;;;;;;;;5044243;28;20047;-81
2023/10/09 02:58:06;;;;;;;22.73;10.68;;;;;;;;;;5043246;28;20179;-82
2023/10/09 03:00:35;;;;;;;22.08;9.98;;;;;;;;;;5044923;28;20052;-82
2023/10/09 03:03:04;;;;;;;22.15;10.95;;;;;;;;;;5038607;28;20055;-82
2023/10/09 03:05:30;;;;;;;18.25;11.20;;;;;;;;;;5039153;28;20053;-81
2023/10/09 03:07:56;;;;;;;20.85;9.57;;;;;;;;;;5038662;28;20087;-82
2023/10/09 03:10:23;;;;;;;19.00;9.93;;;;;;;;;;5038989;28;20440;-82
2023/10/09 03:12:52;;;;;;;19.00;10.02;;;;;;;;;;5038685;28;20041;-81
2023/10/09 03:15:20;;;;;;;20.70;9.15;;;;;;;;;;5039581;28;20855;-81
2023/10/09 03:17:47;;;;;;;16.02;8.85;;;;;;;;;;5041660;28;20041;-81
2023/10/09 03:20:14;;;;;;;19.63;9.32;;;;;;;;;;5037225;28;20048;-82
2023/10/09 03:22:42;;;;;;;24.95;10.30;;;;;;;;;;5039668;28;20037;-82
2023/10/09 03:25:14;;;;;;;22.25;8.93;;;;;;;;;;5040124;28;20569;-81
2023/10/09 03:27:46;;;;;;;19.10;9.40;;;;;;;;;;5037984;28;20123;-82
2023/10/09 03:30:16;;;;;;;18.50;9.98;;;;;;;;;;5039625;28;20047;-82
2023/10/09 03:32:43;;;;;;;18.77;9.38;;;;;;;;;;5077571;28;20053;-82
2023/10/09 03:35:16;;;;;;;20.25;9.20;;;;;;;;;;5046097;28;20060;-81
2023/10/09 03:37:42;;;;;;;17.67;9.52;;;;;;;;;;5049825;28;20041;-82
2023/10/09 03:40:14;;;;;;;22.30;9.35;;;;;;;;;;5044054;28;20181;-82
2023/10/09 03:42:42;;;;;;;24.65;10.35;;;;;;;;;;5044434;28;20048;-82
2023/10/09 03:45:31;;;;;;;19.23;9.27;;;;;;;;;;5042914;28;20053;-82
2023/10/09 03:48:05;;;;;;;24.65;9.35;;;;;;;;;;5039967;28;20059;-82
2023/10/09 03:50:43;;;;;;;27.65;9.80;;;;;;;;;;5043021;28;20049;-82
2023/10/09 03:53:12;;;;;;;23.23;9.75;;;;;;;;;;5040855;28;20059;-82
2023/10/09 03:55:39;;;;;;;14.85;8.38;;;;;;;;;;5041095;28;20397;-82
2023/10/09 03:58:06;;;;;;;15.95;9.52;;;;;;;;;;5037332;28;20053;-82
2023/10/09 04:00:40;;;;;;;20.55;9.70;;;;;;;;;;5042862;28;20113;-81
2023/10/09 04:03:07;;;;;;;17.40;9.05;;;;;;;;;;5045411;28;20041;-82
2023/10/09 04:05:33;;;;;;;19.17;9.80;;;;;;;;;;5037075;28;20057;-81
2023/10/09 04:08:11;;;;;;;25.02;10.05;;;;;;;;;;5045889;28;20060;-81
2023/10/09 04:10:50;;;;;;;21.42;9.85;;;;;;;;;;5041598;28;20053;-82
2023/10/09 04:13:22;;;;;;;20.05;9.18;;;;;;;;;;5038362;28;20045;-82
2023/10/09 04:15:49;;;;;;;17.63;8.80;;;;;;;;;;5035369;28;20052;-82
2023/10/09 04:18:15;;;;;;;16.85;9.07;;;;;;;;;;5043836;28;20045;-82
2023/10/09 04:23:16;;;;;;;28.05;11.40;;;;;;;;;;5044913;28;20111;-81
2023/10/09 04:25:42;;;;;;;24.08;9.85;;;;;;;;;;5044028;28;20045;-82
2023/10/09 04:28:09;;;;;;;24.35;9.20;;;;;;;;;;5043567;28;20052;-82
2023/10/09 04:30:46;;;;;;;20.65;9.32;;;;;;;;;;5044523;28;20049;-82
2023/10/09 04:33:29;;;;;;;20.58;9.65;;;;;;;;;;5073412;28;20060;-82
2023/10/09 04:39:15;;;;;;;22.73;10.13;;;;;;;;;;5042867;28;20060;-82
2023/10/09 04:44:19;;;;;;;24.90;9.77;;;;;;;;;;5043079;28;20063;-82
2023/10/09 04:50:01;;;;;;;22.98;9.27;;;;;;;;;;5050193;28;20511;-82
2023/10/09 05:03:06;;;;;;;25.33;10.13;;;;;;;;;;5044483;28;20051;-81
2023/10/09 05:08:28;;;;;;;19.38;9.20;;;;;;;;;;5039142;28;20052;-81
2023/10/09 05:11:23;;;;;;;16.52;9.10;;;;;;;;;;5043500;28;20382;-81
2023/10/09 05:14:04;;;;;;;25.40;11.55;;;;;;;;;;5077487;28;20072;-81
2023/10/09 05:16:32;;;;;;;22.42;11.60;;;;;;;;;;5039671;28;20041;-80
2023/10/09 05:18:59;;;;;;;22.15;9.40;;;;;;;;;;5046660;28;20053;-81
2023/10/09 05:21:47;;;;;;;17.88;8.88;;;;;;;;;;5046059;28;20042;-82
2023/10/09 05:27:17;;;;;;;19.20;10.02;;;;;;;;;;5051355;28;20061;-82
2023/10/09 05:32:27;;;;;;;22.88;9.70;;;;;;;;;;5044634;28;20061;-81
2023/10/09 05:37:33;;;;;;;17.80;8.02;;;;;;;;;;5075921;28;19927;-81
2023/10/09 05:47:53;;;;;;;16.13;7.68;;;;;;;;;;5072801;28;20064;-81
2023/10/09 05:50:34;;;;;;;18.52;9.10;;;;;;;;;;5043754;28;20091;-81
2023/10/09 05:53:34;;;;;;;16.92;9.27;;;;;;;;;;5047629;28;20618;-81
2023/10/09 06:01:40;;;;;;;22.02;10.13;;;;;;;;;;5072106;28;20068;-81
2023/10/09 06:04:16;;;;;;;21.73;9.85;;;;;;;;;;5049005;28;20052;-80
2023/10/09 06:06:45;;;;;;;21.08;9.50;;;;;;;;;;5057649;28;20041;-81
2023/10/09 06:24:28;;;;;;;20.98;9.68;;;;;;;;;;5045425;28;20131;-81
2023/10/09 06:29:36;;;;;;;22.63;8.98;;;;;;;;;;5045836;28;20052;-81
2023/10/09 06:34:46;;;;;;;23.52;9.05;;;;;;;;;;5043629;28;20392;-81
2023/10/09 06:41:01;;;;;;;21.90;8.90;;;;;;;;;;5044000;28;20164;-80
2023/10/09 06:45:43;;;;;;;22.88;9.60;;;;;;;;;;5040660;28;20505;-77
2023/10/09 06:47:56;;;;;;;24.02;9.35;;;;;;;;;;5047097;28;20181;-81
2023/10/09 06:50:25;;;;;;;21.60;9.70;;;;;;;;;;5046169;28;20406;-80
2023/10/09 06:53:19;;;;;;;24.13;9.23;;;;;;;;;;5076328;28;20068;-80
2023/10/09 06:55:51;;;;;;;27.13;9.18;;;;;;;;;;5046093;28;20558;-80
2023/10/09 06:58:25;;;;;;;;;;;;;;;;;;5041305;28;20447;-80
2023/10/09 07:01:19;;;;;;;23.77;9.38;;;;;;;;;;5048254;28;19921;-80
2023/10/09 07:03:52;;;;;;;20.25;8.95;;;;;;;;;;5043577;28;20648;-79
2023/10/09 07:06:25;;;;;;;23.83;9.80;;;;;;;;;;5049137;28;20049;-80
2023/10/09 07:14:32;;;;;;;18.20;9.90;;;;;;;;;;5055432;28;20143;-80
2023/10/09 07:17:04;;;;;;;23.23;9.70;;;;;;;;;;5047480;28;20080;-80
2023/10/09 07:22:03;;;;;;;19.60;8.65;;;;;;;;;;5072901;28;20056;-80
2023/10/09 07:24:43;;;;;;;22.77;9.43;;;;;;;;;;5055644;28;20041;-80
2023/10/09 07:27:13;;;;;;;24.08;9.88;;;;;;;;;;5055124;28;20044;-80
2023/10/09 07:29:48;;;;;;;18.65;8.63;;;;;;;;;;5069601;28;20049;-80
2023/10/09 07:32:20;;;;;;;22.73;8.90;;;;;;;;;;5059530;28;20091;-79
2023/10/09 07:34:58;;;;;;;21.70;9.02;;;;;;;;;;5070797;28;20051;-80
2023/10/09 07:37:30;;;;;;;26.45;9.00;;;;;;;;;;5043919;28;20048;-81
2023/10/09 07:40:06;;;;;;;20.50;8.85;;;;;;;;;;5049798;28;20163;-80
2023/10/09 07:43:04;;;;;;;21.73;8.20;;;;;;;;;;5059166;28;20392;-80
2023/10/09 07:48:00;;;;;;;24.15;9.20;;;;;;;;;;5055715;28;20057;-80
2023/10/09 07:50:40;;;;;;;22.35;9.13;;;;;;;;;;5055227;28;20061;-80
2023/10/09 07:53:25;;;;;;;23.55;8.95;;;;;;;;;;5046910;28;20055;-79
2023/10/09 07:55:55;;;;;;;25.40;8.82;;;;;;;;;;5045920;28;20048;-80
2023/10/09 07:58:25;;;;;;;20.58;9.10;;;;;;;;;;5044849;28;20150;-79
2023/10/09 08:03:24;;;;;;;23.30;9.70;;;;;;;;;;5057558;28;20098;-80
2023/10/09 08:06:06;;;;;;;19.52;8.90;;;;;;;;;;5059536;28;20090;-80
2023/10/09 08:13:49;;;;;;;18.92;8.35;;;;;;;;;;5059153;28;20068;-80
2023/10/09 08:16:21;;;;;;;21.75;8.93;;;;;;;;;;5055552;28;20049;-79
2023/10/09 08:18:51;;;;;;;21.58;8.63;;;;;;;;;;5066860;28;20047;-80
2023/10/09 08:23:49;;;;;;;22.67;8.48;;;;;;;;;;5046956;28;20468;-80
2023/10/09 08:26:47;;;;;;;15.90;8.57;;;;;;;;;;5039036;28;20052;-80
2023/10/09 08:29:17;;;;;;;19.55;8.20;;;;;;;;;;5048819;28;20049;-80
2023/10/09 08:31:46;;;;;;;23.15;8.90;;;;;;;;;;5056268;28;20037;-81
2023/10/09 08:34:25;;;;;;;25.42;8.48;;;;;;;;;;5060212;28;20055;-81
2023/10/09 08:36:54;;;;;;;17.60;8.70;;;;;;;;;;5050823;28;20146;-80
2023/10/09 08:39:29;;;;;;;25.88;8.57;;;;;;;;;;5056791;28;20550;-80
2023/10/09 08:41:57;;;;;;;17.80;8.50;;;;;;;;;;5074502;28;20052;-80
2023/10/09 08:44:26;;;;;;;19.67;8.02;;;;;;;;;;5062823;28;20044;-81
2023/10/09 08:46:54;;;;;;;17.00;8.32;;;;;;;;;;5065683;28;20049;-80
2023/10/09 08:49:21;;;;;;;24.55;8.20;;;;;;;;;;5045036;28;20119;-80
2023/10/09 08:51:48;;;;;;;21.58;8.35;;;;;;;;;;5052378;28;20056;-80
2023/10/09 08:54:14;;;;;;;21.20;8.25;;;;;;;;;;5052064;28;20074;-80
2023/10/09 08:56:49;;;;;;;19.45;8.20;;;;;;;;;;5054492;28;20036;-81
2023/10/09 08:59:18;;;;;;;23.75;9.25;;;;;;;;;;5051258;28;20056;-80
2023/10/09 09:01:44;;;;;;;22.70;9.20;;;;;;;;;;5078402;28;20037;-81
2023/10/09 09:04:10;;;;;;;20.52;8.80;;;;;;;;;;5049650;28;20177;-80
2023/10/09 09:06:41;;;;;;;24.05;8.85;;;;;;;;;;5071510;28;20036;-80
2023/10/09 09:09:13;;;;;;;20.80;9.52;;;;;;;;;;5071504;28;20530;-80
2023/10/09 09:11:48;;;;;;;23.45;8.80;;;;;;;;;;5068170;28;20472;-80
2023/10/09 09:14:18;;;;;;;19.77;8.63;;;;;;;;;;5052622;28;20056;-80
2023/10/09 09:16:48;;;;;;;23.45;10.23;;;;;;;;;;5048142;28;20536;-81
2023/10/09 09:19:18;;;;;;;20.50;8.30;;;;;;;;;;5036222;28;20084;-80
2023/10/09 09:21:56;;;;;;;19.23;8.75;;;;;;;;;;5045159;28;20079;-81
2023/10/09 09:26:58;;;;;;;12.95;7.57;;;;;;;;;;5064857;28;20045;-81
2023/10/09 09:29:25;;;;;;;18.45;8.55;;;;;;;;;;5066868;28;20163;-81
2023/10/09 09:31:57;;;;;;;16.38;8.43;;;;;;;;;;5062828;28;20044;-80
2023/10/09 09:34:29;;;;;;;23.10;9.35;;;;;;;;;;5053423;28;20046;-80
2023/10/09 09:36:56;;;;;;;21.90;8.55;;;;;;;;;;5053427;28;20095;-81
2023/10/09 09:39:28;;;;;;;17.25;8.73;;;;;;;;;;5051743;28;20059;-81
2023/10/09 09:41:56;;;;;;;21.13;7.90;;;;;;;;;;5050136;28;20615;-80
2023/10/09 09:44:25;;;;;;;19.88;9.13;;;;;;;;;;5052593;28;20057;-81
2023/10/09 09:46:53;;;;;;;20.95;9.23;;;;;;;;;;5056779;28;20045;-81
2023/10/09 09:49:21;;;;;;;19.92;8.95;;;;;;;;;;5054224;28;20169;-81
2023/10/09 09:51:48;;;;;;;22.10;9.30;;;;;;;;;;5052998;28;20057;-81
2023/10/09 09:54:22;;;;;;;24.48;9.48;;;;;;;;;;5051656;28;20053;-80
2023/10/09 09:56:51;;;;;;;20.15;8.63;;;;;;;;;;5084601;28;20040;-80
2023/10/09 09:59:21;;;;;;;21.15;8.85;;;;;;;;;;5053019;28;20080;-80
2023/10/09 10:01:57;;;;;;;21.85;8.23;;;;;;;;;;5052133;28;20068;-81
2023/10/09 10:04:25;;;;;;;21.58;8.68;;;;;;;;;;5061486;28;20058;-80
2023/10/09 10:06:51;;;;;;;22.38;8.40;;;;;;;;;;5051257;28;20049;-77
2023/10/09 10:09:41;;;;;;;17.40;7.60;;;;;;;;;;5050238;28;20044;-81
2023/10/09 10:12:10;;;;;;;16.00;8.38;;;;;;;;;;5055350;28;20052;-81
2023/10/09 10:14:59;;;;;;;18.85;8.13;;;;;;;;;;5055148;28;20045;-81
2023/10/09 10:17:27;;;;;;;19.17;7.82;;;;;;;;;;5043458;28;20123;-79
2023/10/09 10:22:47;;;;;;;21.02;7.70;;;;;;;;;;5053041;28;20049;-81
2023/10/09 10:25:32;;;;;;;17.30;7.60;;;;;;;;;;5085514;28;20044;-81
2023/10/09 10:28:28;;;;;;;20.33;7.70;;;;;;;;;;5049972;28;20828;-82
2023/10/09 10:30:54;;;;;;;17.67;8.02;;;;;;;;;;5051647;28;20049;-81
2023/10/09 10:33:22;;;;;;;19.02;8.10;;;;;;;;;;5052045;28;20115;-81
2023/10/09 10:38:36;;;;;;;16.63;7.82;;;;;;;;;;5055158;28;20472;-81
2023/10/09 10:41:19;;;;;;;19.90;7.43;;;;;;;;;;5051297;28;20092;-82
2023/10/09 10:46:15;;;;;;;12.63;6.60;;;;;;;;;;5051053;28;20060;-80
2023/10/09 10:48:47;;;;;;;17.90;6.32;;;;;;;;;;5051550;28;20398;-80
2023/10/09 10:51:14;;;;;;;14.48;6.43;;;;;;;;;;5051040;28;20083;-80
2023/10/09 10:53:52;;;;;;;14.80;6.90;;;;;;;;;;5056722;28;20108;-81
2023/10/09 10:56:19;;;;;;;18.27;6.30;;;;;;;;;;5050019;28;20056;-80
2023/10/09 11:04:24;;;;;;;12.73;6.13;;;;;;;;;;5047870;28;20053;-80
2023/10/09 11:07:00;;;;;;;14.45;6.78;;;;;;;;;;5051138;28;20041;-80
2023/10/09 11:09:35;;;;;;;15.35;7.35;;;;;;;;;;5051232;28;20512;-80
2023/10/09 11:12:24;;;;;;;14.93;6.05;;;;;;;;;;5050863;28;20041;-81
2023/10/09 11:15:29;;;;;;;15.18;6.35;;;;;;;;;;5065673;28;20062;-81
2023/10/09 11:18:07;;;;;;;15.68;6.65;;;;;;;;;;5038099;28;20095;-81
2023/10/09 11:20:38;;;;;;;17.55;6.35;;;;;;;;;;5050888;28;20064;-80
2023/10/09 11:25:38;;;;;;;17.33;6.10;;;;;;;;;;5031630;28;20048;-80
2023/10/09 11:28:27;;;;;;;12.38;5.57;;;;;;;;;;5046343;28;20308;-81
2023/10/09 11:30:55;;;;;;;14.32;5.65;;;;;;;;;;5049327;28;20053;-81
2023/10/09 11:33:22;;;;;;;11.85;5.22;;;;;;;;;;5051345;28;20123;-81
2023/10/09 11:35:56;;;;;;;12.25;5.78;;;;;;;;;;5049977;28;20040;-81
2023/10/09 11:38:23;;;;;;;12.95;5.80;;;;;;;;;;5051134;28;20052;-81
2023/10/09 11:43:25;;;;;;;16.65;5.68;;;;;;;;;;5064427;28;20067;-81
2023/10/09 11:45:55;;;;;;;15.07;5.80;;;;;;;;;;5044969;28;20049;-81
2023/10/09 11:48:33;;;;;;;16.98;5.35;;;;;;;;;;5048304;28;20088;-82
2023/10/09 11:55:55;;;;;;;11.82;4.78;;;;;;;;;;5051494;28;20497;-81
2023/10/09 11:58:22;;;;;;;13.65;4.97;;;;;;;;;;5049773;28;20060;-81
2023/10/09 12:01:05;;;;;;;15.05;4.97;;;;;;;;;;5041035;28;20049;-81
2023/10/09 12:03:31;;;;;;;10.75;5.28;;;;;;;;;;5046504;28;20067;-79
2023/10/09 12:06:02;;;;;;;14.77;4.90;;;;;;;;;;5055572;28;20060;-80
2023/10/09 12:08:30;;;;;;;12.97;5.00;;;;;;;;;;5054857;28;20404;-79
2023/10/09 12:10:56;;;;;;;13.75;5.60;;;;;;;;;;5054204;28;20033;-80
2023/10/09 12:13:23;;;;;;;10.05;5.13;;;;;;;;;;5051628;28;20051;-80
2023/10/09 12:15:52;;;;;;;11.60;4.88;;;;;;;;;;5071379;28;20059;-80
2023/10/09 12:18:18;;;;;;;9.32;4.20;;;;;;;;;;5061754;28;20376;-80
2023/10/09 12:20:50;;;;;;;13.23;4.72;;;;;;;;;;5053392;28;20045;-80
2023/10/09 12:23:17;;;;;;;11.60;4.75;;;;;;;;;;5052942;28;20059;-81
2023/10/09 12:25:46;;;;;;;9.43;4.18;;;;;;;;;;5054050;28;20400;-81
2023/10/09 12:28:13;;;;;;;10.20;4.50;;;;;;;;;;5054840;28;20037;-81
2023/10/09 12:30:39;;;;;;;11.43;4.60;;;;;;;;;;5053771;28;20060;-81
2023/10/09 12:33:07;;;;;;;10.90;4.50;;;;;;;;;;5046831;28;20116;-81
2023/10/09 12:35:37;;;;;;;9.75;4.63;;;;;;;;;;5046426;28;20122;-81
2023/10/09 12:38:03;;;;;;;13.35;5.70;;;;;;;;;;5052573;28;20048;-81
2023/10/09 12:40:31;;;;;;;14.88;5.68;;;;;;;;;;5053468;28;21240;-81
2023/10/09 12:43:00;;;;;;;13.90;5.85;;;;;;;;;;5042975;28;20489;-81
2023/10/09 12:45:32;;;;;;;11.23;5.28;;;;;;;;;;5039402;28;20068;-81
2023/10/09 12:47:59;;;;;;;14.90;5.15;;;;;;;;;;5050108;28;20105;-81
2023/10/09 12:50:28;;;;;;;12.52;5.18;;;;;;;;;;5048422;28;20049;-81
2023/10/09 12:53:02;;;;;;;16.83;6.18;;;;;;;;;;5050961;28;20040;-80
2023/10/09 12:55:31;;;;;;;;;;;;;;;;;;5045764;28;20376;-81
2023/10/09 12:58:00;;;;;;;11.95;5.43;;;;;;;;;;5054273;28;19931;-81
2023/10/09 13:00:27;;;;;;;13.27;5.47;;;;;;;;;;5072441;28;20162;-81
2023/10/09 13:02:53;;;;;;;13.27;5.50;;;;;;;;;;5061261;28;20041;-81
2023/10/09 13:05:26;;;;;;;13.63;5.35;;;;;;;;;;5048428;28;20053;-79
2023/10/09 13:07:56;;;;;;;13.50;5.43;;;;;;;;;;5045211;28;20080;-80
2023/10/09 13:10:23;;;;;;;12.10;5.47;;;;;;;;;;5047999;28;20044;-80
2023/10/09 13:12:55;;;;;;;14.48;5.72;;;;;;;;;;5041826;28;20045;-80
2023/10/09 13:15:22;;;;;;;15.50;6.00;;;;;;;;;;5048355;28;20419;-80
2023/10/09 13:17:48;;;;;;;14.43;5.03;;;;;;;;;;5046803;28;20049;-81
2023/10/09 13:20:14;;;;;;;16.17;5.60;;;;;;;;;;5045364;28;20128;-81
2023/10/09 13:22:46;;;;;;;10.70;5.30;;;;;;;;;;5043924;28;20041;-82
2023/10/09 13:25:16;;;;;;;15.32;5.10;;;;;;;;;;5043270;28;20542;-81
2023/10/09 13:27:51;;;;;;;11.77;4.90;;;;;;;;;;5030276;28;20045;-81
2023/10/09 13:30:24;;;;;;;13.70;5.68;;;;;;;;;;5047845;28;20045;-79
2023/10/09 13:32:50;;;;;;;10.35;4.78;;;;;;;;;;5045686;28;20044;-80
2023/10/09 13:35:27;;;;;;;12.05;4.70;;;;;;;;;;5046266;28;20045;-83
2023/10/09 13:37:56;;;;;;;8.25;4.80;;;;;;;;;;5046791;28;21444;-80
2023/10/09 13:40:26;;;;;;;11.20;4.05;;;;;;;;;;5049903;28;20036;-79
2023/10/09 13:42:58;;;;;;;9.15;3.63;;;;;;;;;;5048625;28;20065;-81
2023/10/09 13:45:28;;;;;;;11.10;3.78;;;;;;;;;;5049188;28;20060;-81
2023/10/09 13:47:57;;;;;;;6.75;3.80;;;;;;;;;;5047424;28;20053;-82
2023/10/09 13:50:32;;;;;;;10.00;4.25;;;;;;;;;;5047550;28;20534;-83
2023/10/09 13:52:58;;;;;;;11.80;3.97;;;;;;;;;;5026230;28;20160;-86
2023/10/09 13:55:31;;;;;;;10.23;3.97;;;;;;;;;;5043005;28;20041;-80
2023/10/09 13:57:57;;;;;;;;;;;;;;;;;;5046939;28;20052;-80
2023/10/09 14:00:33;;;;;;;8.65;3.50;;;;;;;;;;5044608;28;21486;-81
2023/10/09 14:03:19;;;;;;;8.45;3.47;;;;;;;;;;5044373;28;20132;-81
2023/10/09 14:05:54;;;;;;;12.00;4.03;;;;;;;;;;5040028;28;20125;-81
2023/10/09 14:08:23;;;;;;;7.03;3.42;;;;;;;;;;5051351;28;20044;-81
2023/10/09 14:10:50;;;;;;;8.43;3.42;;;;;;;;;;5050473;28;20126;-81
2023/10/09 14:13:25;;;;;;;7.88;3.70;;;;;;;;;;5047611;28;20033;-81
2023/10/09 14:15:54;;;;;;;5.90;3.33;;;;;;;;;;5048715;28;20049;-81
2023/10/09 14:18:20;;;;;;;8.75;3.50;;;;;;;;;;5047211;28;20403;-81
2023/10/09 14:20:46;;;;;;;6.07;3.38;;;;;;;;;;5048191;28;20504;-81
2023/10/09 14:23:20;;;;;;;12.68;3.63;;;;;;;;;;5049791;28;20143;-81
2023/10/09 14:25:49;;;;;;;6.07;3.00;;;;;;;;;;5045392;28;20480;-81
2023/10/09 14:28:18;;;;;;;7.47;3.83;;;;;;;;;;5045094;28;20049;-81
2023/10/09 14:30:48;;;;;;;8.68;4.18;;;;;;;;;;5076164;28;20056;-81
2023/10/09 14:33:22;;;;;;;9.77;3.75;;;;;;;;;;5047476;28;20060;-81
2023/10/09 14:35:48;;;;;;;12.25;4.10;;;;;;;;;;5045450;28;20120;-79
2023/10/09 14:38:15;;;;;;;9.35;3.95;;;;;;;;;;5042130;28;20094;-79
2023/10/09 14:40:47;;;;;;;9.35;3.95;;;;;;;;;;5040042;28;20053;-79
2023/10/09 14:43:21;;;;;;;9.02;4.40;;;;;;;;;;5042160;28;20516;-79
2023/10/09 14:45:53;;;;;;;11.23;3.72;;;;;;;;;;5042298;28;20052;-80
2023/10/09 14:48:19;;;;;;;7.72;3.85;;;;;;;;;;5044729;28;20067;-79
2023/10/09 14:50:49;;;;;;;9.05;3.72;;;;;;;;;;5045473;28;20052;-80
2023/10/09 14:53:15;;;;;;;9.13;3.80;;;;;;;;;;5076312;28;20044;-79
2023/10/09 14:55:45;;;;;;;8.82;4.70;;;;;;;;;;5045261;28;20064;-79
2023/10/09 14:58:11;;;;;;;8.35;4.10;;;;;;;;;;5039920;28;20112;-80
2023/10/09 15:00:38;;;;;;;9.20;4.00;;;;;;;;;;5044239;28;20052;-80
2023/10/09 15:03:04;;;;;;;9.32;4.22;;;;;;;;;;5045896;28;20132;-80
2023/10/09 15:05:33;;;;;;;9.55;4.15;;;;;;;;;;5039286;28;20060;-80
2023/10/09 15:08:00;;;;;;;7.20;3.70;;;;;;;;;;5078640;28;20049;-79
2023/10/09 15:10:27;;;;;;;6.10;3.78;;;;;;;;;;5043548;28;20049;-79
2023/10/09 15:12:53;;;;;;;9.10;3.67;;;;;;;;;;5074070;28;20048;-80
2023/10/09 15:15:25;;;;;;;10.32;4.10;;;;;;;;;;5042451;28;20055;-79
2023/10/09 15:17:51;;;;;;;12.00;3.90;;;;;;;;;;5044249;28;20495;-79
2023/10/09 15:20:17;;;;;;;7.47;4.00;;;;;;;;;;5044642;28;20045;-79
2023/10/09 15:22:44;;;;;;;7.40;4.30;;;;;;;;;;5048997;28;21304;-79
2023/10/09 15:25:14;;;;;;;11.23;4.20;;;;;;;;;;5045980;28;20179;-79
2023/10/09 15:27:40;;;;;;;11.45;4.00;;;;;;;;;;5041525;28;20068;-79
2023/10/09 15:30:13;;;;;;;8.52;3.83;;;;;;;;;;5043708;28;20194;-79
2023/10/09 15:32:43;;;;;;;10.65;4.07;;;;;;;;;;5045204;28;20084;-81
2023/10/09 15:35:15;;;;;;;11.23;4.30;;;;;;;;;;5043195;28;20140;-79
2023/10/09 15:37:42;;;;;;;8.40;3.67;;;;;;;;;;5044725;28;20041;-80
2023/10/09 15:40:18;;;;;;;6.43;3.40;;;;;;;;;;5045481;28;20312;-79
2023/10/09 15:42:49;;;;;;;6.53;3.53;;;;;;;;;;5045067;28;20051;-79
2023/10/09 15:45:16;;;;;;;5.03;3.33;;;;;;;;;;5039019;28;20053;-78
2023/10/09 15:47:44;;;;;;;8.75;3.72;;;;;;;;;;5049793;28;20095;-80
2023/10/09 15:50:14;;;;;;;9.48;3.45;;;;;;;;;;5039604;28;20049;-80
2023/10/09 15:52:40;;;;;;;8.55;3.72;;;;;;;;;;5038698;28;20083;-79
2023/10/09 15:55:13;;;;;;;7.90;3.83;;;;;;;;;;5044390;28;20048;-80
2023/10/09 15:57:42;;;;;;;10.73;3.95;;;;;;;;;;5050114;28;20052;-79
2023/10/09 16:00:13;;;;;;;9.45;4.03;;;;;;;;;;5045451;28;20096;-80
2023/10/09 16:02:40;;;;;;;7.85;3.75;;;;;;;;;;5044491;28;20045;-85
2023/10/09 16:05:09;;;;;;;5.30;3.33;;;;;;;;;;5042127;28;20037;-85
2023/10/09 16:07:37;;;;;;;5.53;4.10;;;;;;;;;;5046199;28;20508;-84
2023/10/09 16:10:05;;;;;;;9.55;4.05;;;;;;;;;;5050792;28;20041;-83
2023/10/09 16:12:31;;;;;;;4.72;3.33;;;;;;;;;;5060631;28;20037;-84
2023/10/09 16:14:57;;;;;;;10.52;3.45;;;;;;;;;;5057575;28;20041;-85
2023/10/09 16:17:24;;;;;;;10.45;3.90;;;;;;;;;;5062347;28;20051;-85
2023/10/09 16:19:51;;;;;;;6.63;3.33;;;;;;;;;;5048198;28;20087;-85
2023/10/09 16:22:17;;;;;;;8.52;3.60;;;;;;;;;;5054667;28;20558;-84
2023/10/09 16:24:44;;;;;;;6.50;3.60;;;;;;;;;;5049782;28;20033;-84
2023/10/09 16:27:19;;;;;;;6.75;3.65;;;;;;;;;;5050838;28;20151;-86
2023/10/09 16:29:50;;;;;;;5.40;3.53;;;;;;;;;;5045556;28;20127;-85
2023/10/09 16:32:16;;;;;;;9.13;3.75;;;;;;;;;;5043194;28;20087;-85
2023/10/09 16:34:44;;;;;;;8.30;3.53;;;;;;;;;;5048100;28;20044;-86
2023/10/09 16:37:11;;;;;;;4.78;3.00;;;;;;;;;;5045982;28;20453;-85
2023/10/09 16:39:41;;;;;;;6.93;3.60;;;;;;;;;;5046379;28;20077;-85
2023/10/09 16:42:09;;;;;;;7.07;3.55;;;;;;;;;;5043529;28;20147;-85
2023/10/09 16:44:36;;;;;;;6.85;3.53;;;;;;;;;;5043396;28;20189;-85
2023/10/09 16:47:06;;;;;;;7.00;3.30;;;;;;;;;;5042700;28;20675;-85
2023/10/09 16:49:34;;;;;;;6.88;3.15;;;;;;;;;;5047473;28;20090;-85
2023/10/09 16:52:01;;;;;;;7.70;3.13;;;;;;;;;;5044988;28;20049;-86
2023/10/09 16:54:27;;;;;;;8.70;3.60;;;;;;;;;;5048695;28;20370;-85
2023/10/09 16:56:56;;;;;;;7.25;3.45;;;;;;;;;;5042872;28;20484;-85
2023/10/09 16:59:22;;;;;;;7.47;3.88;;;;;;;;;;5045866;28;20053;-79
2023/10/09 17:01:49;;;;;;;7.32;3.83;;;;;;;;;;5055514;28;20048;-85
2023/10/09 17:04:22;;;;;;;10.45;4.03;;;;;;;;;;5051702;28;20053;-85
2023/10/09 17:06:51;;;;;;;5.30;3.60;;;;;;;;;;5052942;28;20523;-85